sensor_id;sensor_type;location;lat;lon;timestamp;P1;durP1;ratioP1;P2;durP2;ratioP2
5923;SDS011;2987;50.884;14.818;2022-10-17T00:02:06;40.43;;;31.73;;
5923;SDS011;2987;50.884;14.818;2022-10-17T00:04:32;40.03;;;31.17;;
5923;SDS011;2987;50.884;14.818;2022-10-17T00:06:58;36.63;;;29.50;;
5923;SDS011;2987;50.884;14.818;2022-10-17T00:09:24;36.23;;;29.07;;
5923;SDS011;2987;50.884;14.818;2022-10-17T00:11:51;40.03;;;31.83;;
5923;SDS011;2987;50.884;14.818;2022-10-17T00:14:17;38.73;;;29.07;;
5923;SDS011;2987;50.884;14.818;2022-10-17T00:16:43;43.70;;;30.53;;
5923;SDS011;2987;50.884;14.818;2022-10-17T00:19:09;39.10;;;30.50;;
5923;SDS011;2987;50.884;14.818;2022-10-17T00:21:35;38.37;;;28.90;;
5923;SDS011;2987;50.884;14.818;2022-10-17T00:24:01;38.60;;;29.87;;
5923;SDS011;2987;50.884;14.818;2022-10-17T00:26:28;44.90;;;33.83;;
5923;SDS011;2987;50.884;14.818;2022-10-17T00:28:54;44.20;;;33.37;;
5923;SDS011;2987;50.884;14.818;2022-10-17T00:31:21;45.77;;;33.47;;
5923;SDS011;2987;50.884;14.818;2022-10-17T00:33:48;48.43;;;34.70;;
5923;SDS011;2987;50.884;14.818;2022-10-17T00:36:17;43.57;;;33.60;;
5923;SDS011;2987;50.884;14.818;2022-10-17T00:38:47;53.13;;;38.73;;
5923;SDS011;2987;50.884;14.818;2022-10-17T00:41:16;45.67;;;34.33;;
5923;SDS011;2987;50.884;14.818;2022-10-17T00:43:53;48.43;;;34.67;;
5923;SDS011;2987;50.884;14.818;2022-10-17T00:46:25;51.70;;;35.67;;
5923;SDS011;2987;50.884;14.818;2022-10-17T00:48:54;52.30;;;37.03;;
5923;SDS011;2987;50.884;14.818;2022-10-17T00:51:25;51.50;;;37.83;;
5923;SDS011;2987;50.884;14.818;2022-10-17T00:54:03;57.93;;;39.87;;
5923;SDS011;2987;50.884;14.818;2022-10-17T00:56:31;51.53;;;38.23;;
5923;SDS011;2987;50.884;14.818;2022-10-17T00:58:58;46.47;;;34.90;;
5923;SDS011;2987;50.884;14.818;2022-10-17T01:01:24;49.07;;;35.27;;
5923;SDS011;2987;50.884;14.818;2022-10-17T01:03:51;43.03;;;34.57;;
5923;SDS011;2987;50.884;14.818;2022-10-17T01:06:17;45.47;;;33.37;;
5923;SDS011;2987;50.884;14.818;2022-10-17T01:08:43;45.83;;;32.80;;
5923;SDS011;2987;50.884;14.818;2022-10-17T01:11:17;39.23;;;29.90;;
5923;SDS011;2987;50.884;14.818;2022-10-17T01:14:08;41.23;;;31.83;;
5923;SDS011;2987;50.884;14.818;2022-10-17T01:16:45;39.97;;;31.60;;
5923;SDS011;2987;50.884;14.818;2022-10-17T01:19:45;40.13;;;30.20;;
5923;SDS011;2987;50.884;14.818;2022-10-17T01:22:26;43.50;;;30.73;;
5923;SDS011;2987;50.884;14.818;2022-10-17T01:25:14;38.40;;;29.87;;
5923;SDS011;2987;50.884;14.818;2022-10-17T01:27:52;43.27;;;31.67;;
5923;SDS011;2987;50.884;14.818;2022-10-17T01:36:30;41.57;;;32.10;;
5923;SDS011;2987;50.884;14.818;2022-10-17T01:44:19;52.30;;;36.00;;
5923;SDS011;2987;50.884;14.818;2022-10-17T01:46:53;49.13;;;34.90;;
5923;SDS011;2987;50.884;14.818;2022-10-17T01:49:25;57.67;;;38.60;;
5923;SDS011;2987;50.884;14.818;2022-10-17T01:51:55;51.23;;;37.00;;
5923;SDS011;2987;50.884;14.818;2022-10-17T01:54:47;50.00;;;35.80;;
5923;SDS011;2987;50.884;14.818;2022-10-17T02:00:00;50.70;;;35.97;;
5923;SDS011;2987;50.884;14.818;2022-10-17T02:02:40;55.63;;;39.43;;
5923;SDS011;2987;50.884;14.818;2022-10-17T02:07:34;52.70;;;37.40;;
5923;SDS011;2987;50.884;14.818;2022-10-17T02:10:01;46.53;;;34.70;;
5923;SDS011;2987;50.884;14.818;2022-10-17T02:37:18;62.80;;;42.13;;
5923;SDS011;2987;50.884;14.818;2022-10-17T02:39:52;61.87;;;40.00;;
5923;SDS011;2987;50.884;14.818;2022-10-17T02:42:21;60.03;;;40.00;;
5923;SDS011;2987;50.884;14.818;2022-10-17T02:44:49;67.43;;;45.30;;
5923;SDS011;2987;50.884;14.818;2022-10-17T02:47:18;73.53;;;46.27;;
5923;SDS011;2987;50.884;14.818;2022-10-17T02:49:53;61.10;;;42.57;;
5923;SDS011;2987;50.884;14.818;2022-10-17T02:52:24;70.33;;;45.17;;
5923;SDS011;2987;50.884;14.818;2022-10-17T02:54:58;63.20;;;42.13;;
5923;SDS011;2987;50.884;14.818;2022-10-17T02:57:36;64.50;;;41.77;;
5923;SDS011;2987;50.884;14.818;2022-10-17T03:00:07;58.13;;;40.10;;
5923;SDS011;2987;50.884;14.818;2022-10-17T03:02:42;60.67;;;40.67;;
5923;SDS011;2987;50.884;14.818;2022-10-17T03:05:12;69.60;;;44.53;;
5923;SDS011;2987;50.884;14.818;2022-10-17T03:07:40;71.53;;;46.03;;
5923;SDS011;2987;50.884;14.818;2022-10-17T03:10:06;64.50;;;42.07;;
5923;SDS011;2987;50.884;14.818;2022-10-17T03:12:33;70.80;;;45.97;;
5923;SDS011;2987;50.884;14.818;2022-10-17T03:14:59;76.87;;;46.47;;
5923;SDS011;2987;50.884;14.818;2022-10-17T03:17:25;92.03;;;50.27;;
5923;SDS011;2987;50.884;14.818;2022-10-17T03:19:51;85.33;;;49.33;;
5923;SDS011;2987;50.884;14.818;2022-10-17T03:22:17;91.27;;;49.40;;
5923;SDS011;2987;50.884;14.818;2022-10-17T03:24:48;84.47;;;50.33;;
5923;SDS011;2987;50.884;14.818;2022-10-17T03:27:15;81.63;;;49.43;;
5923;SDS011;2987;50.884;14.818;2022-10-17T03:29:42;92.07;;;53.17;;
5923;SDS011;2987;50.884;14.818;2022-10-17T03:32:09;101.97;;;54.20;;
5923;SDS011;2987;50.884;14.818;2022-10-17T03:34:35;94.07;;;53.40;;
5923;SDS011;2987;50.884;14.818;2022-10-17T03:37:01;82.40;;;49.93;;
5923;SDS011;2987;50.884;14.818;2022-10-17T03:39:29;85.40;;;50.67;;
5923;SDS011;2987;50.884;14.818;2022-10-17T03:41:56;90.73;;;51.30;;
5923;SDS011;2987;50.884;14.818;2022-10-17T03:44:23;77.37;;;49.00;;
5923;SDS011;2987;50.884;14.818;2022-10-17T03:46:49;73.33;;;48.27;;
5923;SDS011;2987;50.884;14.818;2022-10-17T03:49:15;70.47;;;46.77;;
5923;SDS011;2987;50.884;14.818;2022-10-17T03:51:41;66.67;;;44.40;;
5923;SDS011;2987;50.884;14.818;2022-10-17T03:54:11;69.27;;;43.40;;
5923;SDS011;2987;50.884;14.818;2022-10-17T03:56:38;61.47;;;41.03;;
5923;SDS011;2987;50.884;14.818;2022-10-17T03:59:12;53.83;;;40.83;;
5923;SDS011;2987;50.884;14.818;2022-10-17T04:01:42;57.00;;;40.50;;
5923;SDS011;2987;50.884;14.818;2022-10-17T04:04:09;57.50;;;39.13;;
5923;SDS011;2987;50.884;14.818;2022-10-17T04:06:36;60.73;;;40.70;;
5923;SDS011;2987;50.884;14.818;2022-10-17T04:09:04;58.83;;;39.17;;
5923;SDS011;2987;50.884;14.818;2022-10-17T04:11:39;51.20;;;36.30;;
5923;SDS011;2987;50.884;14.818;2022-10-17T04:14:06;50.90;;;37.73;;
5923;SDS011;2987;50.884;14.818;2022-10-17T04:16:32;52.57;;;38.17;;
5923;SDS011;2987;50.884;14.818;2022-10-17T04:19:02;58.20;;;39.47;;
5923;SDS011;2987;50.884;14.818;2022-10-17T04:21:34;55.93;;;37.87;;
5923;SDS011;2987;50.884;14.818;2022-10-17T04:24:04;49.43;;;36.57;;
5923;SDS011;2987;50.884;14.818;2022-10-17T04:26:51;51.73;;;37.63;;
5923;SDS011;2987;50.884;14.818;2022-10-17T04:29:17;56.23;;;36.87;;
5923;SDS011;2987;50.884;14.818;2022-10-17T04:31:44;55.77;;;37.60;;
5923;SDS011;2987;50.884;14.818;2022-10-17T04:34:11;50.70;;;36.63;;
5923;SDS011;2987;50.884;14.818;2022-10-17T04:36:39;51.73;;;37.20;;
5923;SDS011;2987;50.884;14.818;2022-10-17T04:39:06;52.20;;;35.20;;
5923;SDS011;2987;50.884;14.818;2022-10-17T04:41:34;51.73;;;38.03;;
5923;SDS011;2987;50.884;14.818;2022-10-17T04:44:01;49.13;;;36.80;;
5923;SDS011;2987;50.884;14.818;2022-10-17T04:46:32;48.90;;;34.70;;
5923;SDS011;2987;50.884;14.818;2022-10-17T04:48:59;51.90;;;36.27;;
5923;SDS011;2987;50.884;14.818;2022-10-17T04:51:29;47.10;;;35.43;;
5923;SDS011;2987;50.884;14.818;2022-10-17T04:54:09;49.03;;;35.57;;
5923;SDS011;2987;50.884;14.818;2022-10-17T04:56:38;48.27;;;36.17;;
5923;SDS011;2987;50.884;14.818;2022-10-17T04:59:04;51.80;;;35.93;;
5923;SDS011;2987;50.884;14.818;2022-10-17T05:01:31;44.80;;;35.07;;
5923;SDS011;2987;50.884;14.818;2022-10-17T05:03:57;44.40;;;34.37;;
5923;SDS011;2987;50.884;14.818;2022-10-17T05:06:24;43.77;;;34.37;;
5923;SDS011;2987;50.884;14.818;2022-10-17T05:09:12;44.63;;;34.30;;
5923;SDS011;2987;50.884;14.818;2022-10-17T05:11:38;46.13;;;35.23;;
5923;SDS011;2987;50.884;14.818;2022-10-17T05:14:07;43.40;;;32.60;;
5923;SDS011;2987;50.884;14.818;2022-10-17T05:16:34;50.77;;;35.30;;
5923;SDS011;2987;50.884;14.818;2022-10-17T05:19:00;43.37;;;33.27;;
5923;SDS011;2987;50.884;14.818;2022-10-17T05:21:32;50.43;;;35.80;;
5923;SDS011;2987;50.884;14.818;2022-10-17T05:23:59;48.37;;;34.50;;
5923;SDS011;2987;50.884;14.818;2022-10-17T05:26:26;42.73;;;33.03;;
5923;SDS011;2987;50.884;14.818;2022-10-17T05:28:52;41.87;;;31.87;;
5923;SDS011;2987;50.884;14.818;2022-10-17T05:31:21;44.37;;;33.90;;
5923;SDS011;2987;50.884;14.818;2022-10-17T05:33:48;43.80;;;33.67;;
5923;SDS011;2987;50.884;14.818;2022-10-17T05:36:14;45.30;;;33.63;;
5923;SDS011;2987;50.884;14.818;2022-10-17T05:38:40;47.23;;;36.10;;
5923;SDS011;2987;50.884;14.818;2022-10-17T05:41:08;43.97;;;33.03;;
5923;SDS011;2987;50.884;14.818;2022-10-17T05:43:36;48.43;;;35.07;;
5923;SDS011;2987;50.884;14.818;2022-10-17T05:46:03;44.47;;;32.97;;
5923;SDS011;2987;50.884;14.818;2022-10-17T05:48:32;44.23;;;33.23;;
5923;SDS011;2987;50.884;14.818;2022-10-17T05:51:01;44.53;;;33.17;;
5923;SDS011;2987;50.884;14.818;2022-10-17T05:53:30;42.40;;;32.23;;
5923;SDS011;2987;50.884;14.818;2022-10-17T05:56:03;43.77;;;32.27;;
5923;SDS011;2987;50.884;14.818;2022-10-17T05:58:34;44.30;;;33.03;;
5923;SDS011;2987;50.884;14.818;2022-10-17T06:01:03;46.27;;;34.37;;
5923;SDS011;2987;50.884;14.818;2022-10-17T06:03:31;46.23;;;33.23;;
5923;SDS011;2987;50.884;14.818;2022-10-17T06:06:02;47.53;;;33.80;;
5923;SDS011;2987;50.884;14.818;2022-10-17T06:08:30;44.43;;;33.57;;
5923;SDS011;2987;50.884;14.818;2022-10-17T06:10:57;44.57;;;34.27;;
5923;SDS011;2987;50.884;14.818;2022-10-17T06:13:23;43.03;;;33.43;;
5923;SDS011;2987;50.884;14.818;2022-10-17T06:15:51;40.50;;;30.43;;
5923;SDS011;2987;50.884;14.818;2022-10-17T06:18:17;40.93;;;31.73;;
5923;SDS011;2987;50.884;14.818;2022-10-17T06:20:43;49.17;;;32.90;;
5923;SDS011;2987;50.884;14.818;2022-10-17T06:23:10;45.80;;;34.00;;
5923;SDS011;2987;50.884;14.818;2022-10-17T06:25:47;44.47;;;32.00;;
5923;SDS011;2987;50.884;14.818;2022-10-17T06:28:13;43.03;;;33.27;;
5923;SDS011;2987;50.884;14.818;2022-10-17T06:30:39;47.13;;;34.83;;
5923;SDS011;2987;50.884;14.818;2022-10-17T06:33:06;44.13;;;33.10;;
5923;SDS011;2987;50.884;14.818;2022-10-17T06:35:32;40.80;;;32.73;;
5923;SDS011;2987;50.884;14.818;2022-10-17T06:37:58;40.30;;;32.23;;
5923;SDS011;2987;50.884;14.818;2022-10-17T06:40:25;46.70;;;32.03;;
5923;SDS011;2987;50.884;14.818;2022-10-17T06:42:51;44.00;;;31.93;;
5923;SDS011;2987;50.884;14.818;2022-10-17T06:45:37;46.27;;;31.93;;
5923;SDS011;2987;50.884;14.818;2022-10-17T06:48:16;41.83;;;31.60;;
5923;SDS011;2987;50.884;14.818;2022-10-17T06:50:50;53.80;;;33.20;;
5923;SDS011;2987;50.884;14.818;2022-10-17T06:53:21;40.17;;;31.73;;
5923;SDS011;2987;50.884;14.818;2022-10-17T06:56:05;41.63;;;31.43;;
5923;SDS011;2987;50.884;14.818;2022-10-17T06:58:53;64.40;;;47.30;;
5923;SDS011;2987;50.884;14.818;2022-10-17T07:01:22;61.63;;;44.80;;
5923;SDS011;2987;50.884;14.818;2022-10-17T07:03:48;62.03;;;44.87;;
5923;SDS011;2987;50.884;14.818;2022-10-17T07:06:14;51.97;;;36.07;;
5923;SDS011;2987;50.884;14.818;2022-10-17T07:08:42;52.90;;;38.67;;
5923;SDS011;2987;50.884;14.818;2022-10-17T07:11:12;43.37;;;33.07;;
5923;SDS011;2987;50.884;14.818;2022-10-17T07:13:41;45.63;;;32.47;;
5923;SDS011;2987;50.884;14.818;2022-10-17T07:16:07;39.20;;;29.87;;
5923;SDS011;2987;50.884;14.818;2022-10-17T07:18:36;37.20;;;29.67;;
5923;SDS011;2987;50.884;14.818;2022-10-17T07:21:03;37.13;;;29.33;;
5923;SDS011;2987;50.884;14.818;2022-10-17T07:23:30;38.57;;;28.73;;
5923;SDS011;2987;50.884;14.818;2022-10-17T07:25:59;34.37;;;27.20;;
5923;SDS011;2987;50.884;14.818;2022-10-17T07:28:28;32.93;;;26.07;;
5923;SDS011;2987;50.884;14.818;2022-10-17T07:31:02;40.43;;;29.30;;
5923;SDS011;2987;50.884;14.818;2022-10-17T07:33:30;35.17;;;27.30;;
5923;SDS011;2987;50.884;14.818;2022-10-17T07:35:58;35.60;;;27.73;;
5923;SDS011;2987;50.884;14.818;2022-10-17T07:38:26;35.70;;;27.90;;
5923;SDS011;2987;50.884;14.818;2022-10-17T07:40:53;37.90;;;27.33;;
5923;SDS011;2987;50.884;14.818;2022-10-17T07:43:20;34.17;;;27.30;;
5923;SDS011;2987;50.884;14.818;2022-10-17T07:45:48;34.20;;;26.43;;
5923;SDS011;2987;50.884;14.818;2022-10-17T07:48:15;38.33;;;26.63;;
5923;SDS011;2987;50.884;14.818;2022-10-17T07:50:41;35.50;;;27.10;;
5923;SDS011;2987;50.884;14.818;2022-10-17T07:53:07;36.23;;;27.50;;
5923;SDS011;2987;50.884;14.818;2022-10-17T07:55:35;34.43;;;25.53;;
5923;SDS011;2987;50.884;14.818;2022-10-17T07:58:02;33.70;;;24.90;;
5923;SDS011;2987;50.884;14.818;2022-10-17T08:00:28;32.77;;;25.83;;
5923;SDS011;2987;50.884;14.818;2022-10-17T08:02:54;34.40;;;25.60;;
5923;SDS011;2987;50.884;14.818;2022-10-17T08:05:21;35.53;;;26.80;;
5923;SDS011;2987;50.884;14.818;2022-10-17T08:07:47;32.47;;;26.43;;
5923;SDS011;2987;50.884;14.818;2022-10-17T08:10:14;33.90;;;26.40;;
5923;SDS011;2987;50.884;14.818;2022-10-17T08:12:41;33.07;;;25.33;;
5923;SDS011;2987;50.884;14.818;2022-10-17T08:15:08;34.43;;;25.10;;
5923;SDS011;2987;50.884;14.818;2022-10-17T08:17:36;33.33;;;25.83;;
5923;SDS011;2987;50.884;14.818;2022-10-17T08:20:03;30.43;;;25.00;;
5923;SDS011;2987;50.884;14.818;2022-10-17T08:22:31;34.33;;;25.73;;
5923;SDS011;2987;50.884;14.818;2022-10-17T08:24:57;31.80;;;24.03;;
5923;SDS011;2987;50.884;14.818;2022-10-17T08:27:23;34.53;;;24.37;;
5923;SDS011;2987;50.884;14.818;2022-10-17T08:29:52;31.03;;;23.97;;
5923;SDS011;2987;50.884;14.818;2022-10-17T08:32:20;30.07;;;24.47;;
5923;SDS011;2987;50.884;14.818;2022-10-17T08:34:51;31.97;;;24.10;;
5923;SDS011;2987;50.884;14.818;2022-10-17T08:37:18;29.50;;;24.23;;
5923;SDS011;2987;50.884;14.818;2022-10-17T08:39:44;29.40;;;23.77;;
5923;SDS011;2987;50.884;14.818;2022-10-17T08:47:58;31.20;;;23.00;;
5923;SDS011;2987;50.884;14.818;2022-10-17T08:55:44;27.40;;;23.53;;
5923;SDS011;2987;50.884;14.818;2022-10-17T08:58:13;30.37;;;21.77;;
5923;SDS011;2987;50.884;14.818;2022-10-17T09:04:08;30.53;;;22.17;;
5923;SDS011;2987;50.884;14.818;2022-10-17T09:23:07;22.10;;;19.70;;
5923;SDS011;2987;50.884;14.818;2022-10-17T09:25:46;25.70;;;19.10;;
5923;SDS011;2987;50.884;14.818;2022-10-17T09:28:19;25.13;;;18.80;;
5923;SDS011;2987;50.884;14.818;2022-10-17T09:30:54;21.50;;;18.93;;
5923;SDS011;2987;50.884;14.818;2022-10-17T09:33:34;21.37;;;18.40;;
5923;SDS011;2987;50.884;14.818;2022-10-17T09:36:10;23.97;;;18.30;;
5923;SDS011;2987;50.884;14.818;2022-10-17T09:38:44;25.00;;;18.60;;
5923;SDS011;2987;50.884;14.818;2022-10-17T09:41:19;24.03;;;18.43;;
5923;SDS011;2987;50.884;14.818;2022-10-17T09:43:51;22.70;;;18.17;;
5923;SDS011;2987;50.884;14.818;2022-10-17T09:46:24;25.50;;;18.77;;
5923;SDS011;2987;50.884;14.818;2022-10-17T09:49:00;20.70;;;18.17;;
5923;SDS011;2987;50.884;14.818;2022-10-17T09:51:36;23.70;;;17.67;;
5923;SDS011;2987;50.884;14.818;2022-10-17T09:54:04;24.57;;;18.40;;
5923;SDS011;2987;50.884;14.818;2022-10-17T09:56:55;20.77;;;18.17;;
5923;SDS011;2987;50.884;14.818;2022-10-17T09:59:30;20.93;;;18.03;;
5923;SDS011;2987;50.884;14.818;2022-10-17T10:02:15;23.33;;;17.27;;
5923;SDS011;2987;50.884;14.818;2022-10-17T10:10:21;23.60;;;17.53;;
5923;SDS011;2987;50.884;14.818;2022-10-17T10:13:14;20.73;;;17.43;;
5923;SDS011;2987;50.884;14.818;2022-10-17T10:18:30;21.03;;;17.07;;
5923;SDS011;2987;50.884;14.818;2022-10-17T10:21:03;22.37;;;17.33;;
5923;SDS011;2987;50.884;14.818;2022-10-17T10:23:32;18.97;;;16.43;;
5923;SDS011;2987;50.884;14.818;2022-10-17T10:26:02;20.47;;;16.63;;
5923;SDS011;2987;50.884;14.818;2022-10-17T10:28:32;22.60;;;16.97;;
5923;SDS011;2987;50.884;14.818;2022-10-17T10:31:03;19.17;;;17.03;;
5923;SDS011;2987;50.884;14.818;2022-10-17T10:33:33;18.23;;;16.33;;
5923;SDS011;2987;50.884;14.818;2022-10-17T10:36:05;17.63;;;15.37;;
5923;SDS011;2987;50.884;14.818;2022-10-17T10:38:33;19.93;;;16.83;;
5923;SDS011;2987;50.884;14.818;2022-10-17T10:41:01;22.47;;;17.33;;
5923;SDS011;2987;50.884;14.818;2022-10-17T10:43:39;21.57;;;17.00;;
5923;SDS011;2987;50.884;14.818;2022-10-17T10:46:19;19.80;;;17.07;;
5923;SDS011;2987;50.884;14.818;2022-10-17T10:48:52;18.40;;;15.93;;
5923;SDS011;2987;50.884;14.818;2022-10-17T10:51:22;19.40;;;16.57;;
5923;SDS011;2987;50.884;14.818;2022-10-17T10:54:10;18.67;;;16.30;;
5923;SDS011;2987;50.884;14.818;2022-10-17T10:56:58;18.47;;;16.13;;
5923;SDS011;2987;50.884;14.818;2022-10-17T10:59:37;18.63;;;15.67;;
5923;SDS011;2987;50.884;14.818;2022-10-17T11:02:23;21.73;;;16.43;;
5923;SDS011;2987;50.884;14.818;2022-10-17T11:05:02;19.03;;;15.47;;
5923;SDS011;2987;50.884;14.818;2022-10-17T11:07:50;22.37;;;16.40;;
5923;SDS011;2987;50.884;14.818;2022-10-17T11:10:29;17.30;;;15.47;;
5923;SDS011;2987;50.884;14.818;2022-10-17T11:13:08;17.30;;;15.50;;
5923;SDS011;2987;50.884;14.818;2022-10-17T11:18:41;23.30;;;15.47;;
5923;SDS011;2987;50.884;14.818;2022-10-17T11:21:15;18.07;;;15.50;;
5923;SDS011;2987;50.884;14.818;2022-10-17T11:28:56;17.87;;;15.60;;
5923;SDS011;2987;50.884;14.818;2022-10-17T11:31:30;16.37;;;14.37;;
5923;SDS011;2987;50.884;14.818;2022-10-17T11:34:17;17.17;;;15.37;;
5923;SDS011;2987;50.884;14.818;2022-10-17T11:36:50;17.17;;;14.83;;
5923;SDS011;2987;50.884;14.818;2022-10-17T11:39:22;19.07;;;14.60;;
5923;SDS011;2987;50.884;14.818;2022-10-17T11:41:59;18.27;;;14.93;;
5923;SDS011;2987;50.884;14.818;2022-10-17T11:44:33;17.03;;;15.20;;
5923;SDS011;2987;50.884;14.818;2022-10-17T11:50:00;19.93;;;14.30;;
5923;SDS011;2987;50.884;14.818;2022-10-17T11:52:43;16.10;;;14.20;;
5923;SDS011;2987;50.884;14.818;2022-10-17T11:55:20;17.30;;;14.40;;
5923;SDS011;2987;50.884;14.818;2022-10-17T11:57:52;16.27;;;14.00;;
5923;SDS011;2987;50.884;14.818;2022-10-17T12:00:51;17.77;;;14.37;;
5923;SDS011;2987;50.884;14.818;2022-10-17T12:03:32;16.17;;;14.40;;
5923;SDS011;2987;50.884;14.818;2022-10-17T12:11:26;17.30;;;14.30;;
5923;SDS011;2987;50.884;14.818;2022-10-17T12:13:54;17.33;;;15.53;;
5923;SDS011;2987;50.884;14.818;2022-10-17T12:19:20;20.67;;;16.40;;
5923;SDS011;2987;50.884;14.818;2022-10-17T12:21:58;21.67;;;15.47;;
5923;SDS011;2987;50.884;14.818;2022-10-17T12:24:31;17.30;;;15.20;;
5923;SDS011;2987;50.884;14.818;2022-10-17T12:30:14;16.37;;;13.43;;
5923;SDS011;2987;50.884;14.818;2022-10-17T12:35:47;18.50;;;14.27;;
5923;SDS011;2987;50.884;14.818;2022-10-17T12:38:21;16.90;;;14.97;;
5923;SDS011;2987;50.884;14.818;2022-10-17T12:45:46;16.40;;;14.63;;
5923;SDS011;2987;50.884;14.818;2022-10-17T12:48:39;18.83;;;15.20;;
5923;SDS011;2987;50.884;14.818;2022-10-17T12:51:14;17.00;;;14.50;;
5923;SDS011;2987;50.884;14.818;2022-10-17T12:53:48;17.40;;;14.20;;
5923;SDS011;2987;50.884;14.818;2022-10-17T12:56:29;15.87;;;14.03;;
5923;SDS011;2987;50.884;14.818;2022-10-17T12:59:04;18.20;;;14.73;;
5923;SDS011;2987;50.884;14.818;2022-10-17T13:01:35;18.70;;;14.43;;
5923;SDS011;2987;50.884;14.818;2022-10-17T13:04:04;17.37;;;14.70;;
5923;SDS011;2987;50.884;14.818;2022-10-17T13:06:36;19.93;;;15.70;;
5923;SDS011;2987;50.884;14.818;2022-10-17T13:12:00;17.47;;;15.10;;
5923;SDS011;2987;50.884;14.818;2022-10-17T13:19:24;18.67;;;14.27;;
5923;SDS011;2987;50.884;14.818;2022-10-17T13:21:54;17.43;;;14.43;;
5923;SDS011;2987;50.884;14.818;2022-10-17T13:24:28;16.00;;;14.07;;
5923;SDS011;2987;50.884;14.818;2022-10-17T13:26:57;17.37;;;14.63;;
5923;SDS011;2987;50.884;14.818;2022-10-17T13:29:24;17.33;;;14.40;;
5923;SDS011;2987;50.884;14.818;2022-10-17T13:31:54;15.57;;;13.97;;
5923;SDS011;2987;50.884;14.818;2022-10-17T13:34:26;17.03;;;14.57;;
5923;SDS011;2987;50.884;14.818;2022-10-17T13:36:54;20.13;;;13.70;;
5923;SDS011;2987;50.884;14.818;2022-10-17T13:39:23;16.50;;;14.00;;
5923;SDS011;2987;50.884;14.818;2022-10-17T13:41:51;19.77;;;14.00;;
5923;SDS011;2987;50.884;14.818;2022-10-17T13:44:20;15.57;;;13.30;;
5923;SDS011;2987;50.884;14.818;2022-10-17T13:46:48;17.00;;;13.97;;
5923;SDS011;2987;50.884;14.818;2022-10-17T13:49:20;16.93;;;13.80;;
5923;SDS011;2987;50.884;14.818;2022-10-17T13:52:02;16.33;;;14.63;;
5923;SDS011;2987;50.884;14.818;2022-10-17T13:54:33;16.43;;;13.80;;
5923;SDS011;2987;50.884;14.818;2022-10-17T13:57:16;15.80;;;14.17;;
5923;SDS011;2987;50.884;14.818;2022-10-17T13:59:49;14.83;;;13.10;;
5923;SDS011;2987;50.884;14.818;2022-10-17T14:02:19;17.47;;;14.53;;
5923;SDS011;2987;50.884;14.818;2022-10-17T14:18:17;16.73;;;13.90;;
5923;SDS011;2987;50.884;14.818;2022-10-17T14:20:47;18.30;;;14.73;;
5923;SDS011;2987;50.884;14.818;2022-10-17T14:26:05;18.73;;;14.60;;
5923;SDS011;2987;50.884;14.818;2022-10-17T14:28:39;20.43;;;14.67;;
5923;SDS011;2987;50.884;14.818;2022-10-17T14:31:08;16.33;;;14.13;;
5923;SDS011;2987;50.884;14.818;2022-10-17T14:33:41;20.53;;;15.17;;
5923;SDS011;2987;50.884;14.818;2022-10-17T14:38:37;20.20;;;15.30;;
5923;SDS011;2987;50.884;14.818;2022-10-17T14:41:05;18.70;;;15.17;;
5923;SDS011;2987;50.884;14.818;2022-10-17T14:46:04;19.13;;;15.83;;
5923;SDS011;2987;50.884;14.818;2022-10-17T14:48:31;17.03;;;14.87;;
5923;SDS011;2987;50.884;14.818;2022-10-17T14:51:06;20.40;;;14.47;;
5923;SDS011;2987;50.884;14.818;2022-10-17T14:53:34;20.20;;;15.13;;
5923;SDS011;2987;50.884;14.818;2022-10-17T14:56:03;19.40;;;15.57;;
5923;SDS011;2987;50.884;14.818;2022-10-17T14:58:45;18.57;;;15.80;;
5923;SDS011;2987;50.884;14.818;2022-10-17T15:01:11;17.43;;;15.23;;
5923;SDS011;2987;50.884;14.818;2022-10-17T15:03:38;18.70;;;14.97;;
5923;SDS011;2987;50.884;14.818;2022-10-17T15:06:08;21.77;;;16.20;;
5923;SDS011;2987;50.884;14.818;2022-10-17T15:08:51;18.50;;;14.93;;
5923;SDS011;2987;50.884;14.818;2022-10-17T15:11:17;23.20;;;15.30;;
5923;SDS011;2987;50.884;14.818;2022-10-17T15:13:43;25.20;;;16.47;;
5923;SDS011;2987;50.884;14.818;2022-10-17T15:16:12;20.20;;;15.63;;
5923;SDS011;2987;50.884;14.818;2022-10-17T15:18:43;18.50;;;15.57;;
5923;SDS011;2987;50.884;14.818;2022-10-17T15:21:11;23.40;;;14.87;;
5923;SDS011;2987;50.884;14.818;2022-10-17T15:23:39;22.63;;;16.27;;
5923;SDS011;2987;50.884;14.818;2022-10-17T15:26:15;18.63;;;15.57;;
5923;SDS011;2987;50.884;14.818;2022-10-17T15:28:43;20.27;;;17.00;;
5923;SDS011;2987;50.884;14.818;2022-10-17T15:31:10;22.87;;;16.73;;
5923;SDS011;2987;50.884;14.818;2022-10-17T15:33:37;20.40;;;15.87;;
